This is the latest recevied weather packets stored in our database for station/object N6OL. If no packets are shown the sender has not sent any weather packets the latest 10 day(s).
| Time | Temp. | Humidity | Pressure | Rain* | Wind** | Luminosity | Snow |
|---|---|---|---|---|---|---|---|
| 1778008503 | 17.22° C | 67% | 1015.9 hPa | 0 mm | - | 744 W/m² | - |
| 1778007603 | 16.67° C | 71% | 1015.7 hPa | 0 mm | - | 979 W/m² | - |
| 1778007004 | 16.11° C | 74% | 1015.7 hPa | 0 mm | - | 443 W/m² | - |
| 1778004324 | 15° C | 79% | 1015.7 hPa | 0 mm | - | 362 W/m² | - |
| 1778002824 | 14.44° C | 81% | 1015.6 hPa | 0 mm | - | 258 W/m² | - |
| 1778002503 | 14.44° C | 82% | 1015.5 hPa | 0 mm | - | 213 W/m² | - |
| 1778001903 | 13.89° C | 83% | 1015.4 hPa | 0 mm | - | 172 W/m² | - |
| 1778001624 | 13.89° C | 83% | 1015.3 hPa | 0 mm | - | 162 W/m² | - |
| 1777998603 | 13.33° C | 86% | 1015.2 hPa | 0 mm | - | 100 W/m² | - |
| 1777998003 | 13.33° C | 86% | 1015.2 hPa | 0 mm | - | 76 W/m² | - |
| 1777997403 | 13.33° C | 86% | 1015.1 hPa | 0 mm | - | 54 W/m² | - |
| 1777997124 | 13.33° C | 86% | 1015.2 hPa | 0 mm | - | 46 W/m² | - |
| 1777994703 | 12.78° C | 86% | 1015 hPa | 0 mm | - | 46 W/m² | - |
| 1777994424 | 12.78° C | 86% | 1014.9 hPa | 0 mm | - | 54 W/m² | - |
| 1777991103 | 12.22° C | 87% | 1014.3 hPa | 0 mm | - | 33 W/m² | - |
| 1777990803 | 12.22° C | 87% | 1014.3 hPa | 0 mm | - | 28 W/m² | - |
| 1777986003 | 11.67° C | 87% | 1014.2 hPa | 0 mm | - | 0 W/m² | - |
| 1777983903 | 11.67° C | 88% | 1014.4 hPa | 0.25 mm | - | 0 W/m² | - |
| 1777981524 | 11.67° C | 88% | 1014.3 hPa | 0 mm | - | 0 W/m² | - |
| 1777981203 | 11.67° C | 88% | 1014.3 hPa | 0 mm | - | 0 W/m² | - |
| 1777980903 | 11.67° C | 88% | 1014.4 hPa | 0 mm | - | 0 W/m² | - |
| 1777980603 | 11.67° C | 88% | 1014.7 hPa | 0 mm | - | 0 W/m² | - |
| 1777980003 | 11.67° C | 88% | 1014.6 hPa | 0 mm | - | 0 W/m² | - |
| 1777978503 | 11.67° C | 89% | 1014.4 hPa | 0 mm | - | 0 W/m² | - |
| 1777977924 | 11.67° C | 89% | 1014.5 hPa | 0 mm | - | 0 W/m² | - |
* Rain latest hour (hover to see other rain measurements)
** Current wind speed in m/s (hover to see current wind gust speed)